createdAt,value
2018-03-22T00:00:46.113Z,33.00
2018-03-22T00:01:46.082Z,33.00
2018-03-22T00:02:46.050Z,30.80
2018-03-22T00:03:46.021Z,34.80
2018-03-22T00:04:46.002Z,30.50
2018-03-22T00:05:45.978Z,31.70
2018-03-22T00:06:45.952Z,32.40
2018-03-22T00:07:45.922Z,33.60
2018-03-22T00:08:45.882Z,34.50
2018-03-22T00:09:45.862Z,28.70
2018-03-22T00:10:45.826Z,30.70
2018-03-22T00:11:45.804Z,32.70
2018-03-22T00:12:45.775Z,27.10
2018-03-22T00:13:45.747Z,29.60
2018-03-22T00:14:45.719Z,29.20
2018-03-22T00:15:45.688Z,33.00
2018-03-22T00:16:45.666Z,33.70
2018-03-22T00:17:45.631Z,35.90
2018-03-22T00:18:45.608Z,29.80
2018-03-22T00:19:45.583Z,31.00
2018-03-22T00:20:45.547Z,31.00
2018-03-22T00:21:45.529Z,34.10
2018-03-22T00:22:45.494Z,30.40
2018-03-22T00:23:45.471Z,31.20
2018-03-22T00:24:45.440Z,33.30
2018-03-22T00:25:45.408Z,30.40
2018-03-22T00:26:45.387Z,31.90
2018-03-22T00:27:45.360Z,28.50
2018-03-22T00:28:45.343Z,31.60
2018-03-22T00:29:45.302Z,32.40
2018-03-22T00:30:45.278Z,32.30
2018-03-22T00:31:45.240Z,32.90
2018-03-22T00:32:45.304Z,32.00
2018-03-22T00:33:45.182Z,35.50
2018-03-22T00:34:45.154Z,34.80
2018-03-22T00:35:45.136Z,33.00
2018-03-22T00:36:45.110Z,32.20
2018-03-22T00:37:45.080Z,34.90
2018-03-22T00:38:45.051Z,33.70
2018-03-22T00:39:45.025Z,35.40
2018-03-22T00:40:44.987Z,36.60
2018-03-22T00:41:44.965Z,36.50
2018-03-22T00:42:44.939Z,35.30
2018-03-22T00:43:44.901Z,32.90
2018-03-22T00:44:44.883Z,39.20
2018-03-22T00:45:44.852Z,33.60
2018-03-22T00:46:44.815Z,36.50
2018-03-22T00:47:44.799Z,33.90
2018-03-22T00:48:44.767Z,37.00
2018-03-22T00:49:44.739Z,37.30
2018-03-22T00:50:44.716Z,35.50
2018-03-22T00:51:44.688Z,35.40
2018-03-22T00:52:44.660Z,35.80
2018-03-22T00:53:44.624Z,39.10
2018-03-22T00:54:44.601Z,41.00
2018-03-22T00:55:44.576Z,35.10
2018-03-22T00:56:44.549Z,36.30
2018-03-22T00:57:44.516Z,34.60
2018-03-22T00:58:44.499Z,37.90
2018-03-22T00:59:44.463Z,36.00
2018-03-22T01:00:44.430Z,35.50
2018-03-22T01:01:44.409Z,34.60
2018-03-22T01:02:44.371Z,40.50
2018-03-22T01:03:44.352Z,37.40
2018-03-22T01:04:44.321Z,37.50
2018-03-22T01:05:44.290Z,36.80
2018-03-22T01:06:44.264Z,33.60
2018-03-22T01:07:44.237Z,35.20
2018-03-22T01:08:44.206Z,36.30
2018-03-22T01:09:44.178Z,35.10
2018-03-22T01:10:44.180Z,38.70
2018-03-22T01:11:44.118Z,34.60
2018-03-22T01:12:44.098Z,31.80
2018-03-22T01:13:44.067Z,38.00
2018-03-22T01:14:44.038Z,36.60
2018-03-22T01:15:44.016Z,36.00
2018-03-22T01:16:43.986Z,34.20
2018-03-22T01:17:43.960Z,39.40
2018-03-22T01:18:43.929Z,36.10
2018-03-22T01:19:43.903Z,35.20
2018-03-22T01:20:43.872Z,34.90
2018-03-22T01:21:43.843Z,37.20
2018-03-22T01:22:43.827Z,37.00
2018-03-22T01:23:43.783Z,34.90
2018-03-22T01:24:43.765Z,38.00
2018-03-22T01:25:43.731Z,38.10
2018-03-22T01:26:43.704Z,37.00
2018-03-22T01:27:43.683Z,38.00
2018-03-22T01:28:43.645Z,36.60
2018-03-22T01:29:43.629Z,38.90
2018-03-22T01:30:43.590Z,35.10
2018-03-22T01:31:43.566Z,36.60
2018-03-22T01:32:43.530Z,36.70
2018-03-22T01:33:43.512Z,34.80
2018-03-22T01:34:43.490Z,34.70
2018-03-22T01:35:43.449Z,35.50
2018-03-22T01:36:43.424Z,35.10
2018-03-22T01:37:43.394Z,39.20
2018-03-22T01:38:43.368Z,36.10
2018-03-22T01:39:43.342Z,34.80
2018-03-22T01:40:43.323Z,37.20
2018-03-22T01:41:43.291Z,34.80
2018-03-22T01:42:43.264Z,36.70
2018-03-22T01:43:43.225Z,42.30
2018-03-22T01:44:43.202Z,38.40
2018-03-22T01:45:43.171Z,32.70
2018-03-22T01:46:43.147Z,33.20
2018-03-22T01:47:43.119Z,36.40
2018-03-22T01:48:43.085Z,41.50
2018-03-22T01:49:43.069Z,37.20
2018-03-22T01:50:43.049Z,34.20
2018-03-22T01:51:43.007Z,35.60
2018-03-22T01:52:42.976Z,33.40
2018-03-22T01:53:42.945Z,34.20
2018-03-22T01:54:42.914Z,36.00
2018-03-22T01:55:42.895Z,37.00
2018-03-22T01:56:42.859Z,37.90
2018-03-22T01:57:42.836Z,35.40
2018-03-22T01:58:42.809Z,36.00
2018-03-22T01:59:42.774Z,36.20
2018-03-22T02:00:42.750Z,37.80
2018-03-22T02:01:42.728Z,36.20
2018-03-22T02:02:42.692Z,38.90
2018-03-22T02:03:42.672Z,36.50
2018-03-22T02:04:42.642Z,40.90
2018-03-22T02:05:42.615Z,35.50
2018-03-22T02:06:42.585Z,34.70
2018-03-22T02:07:42.552Z,36.20
2018-03-22T02:08:42.526Z,36.80
2018-03-22T02:09:42.497Z,39.50
2018-03-22T02:10:42.472Z,37.70
2018-03-22T02:11:42.459Z,37.30
2018-03-22T02:12:42.416Z,36.50
2018-03-22T02:13:42.383Z,37.00
2018-03-22T02:14:42.357Z,35.40
2018-03-22T02:15:42.329Z,37.20
2018-03-22T02:16:42.300Z,37.40
2018-03-22T02:17:42.275Z,36.90
2018-03-22T02:18:42.254Z,34.70
2018-03-22T02:19:42.216Z,35.40
2018-03-22T02:20:42.196Z,39.00
2018-03-22T02:21:42.159Z,35.10
2018-03-22T02:22:42.131Z,35.40
2018-03-22T02:23:42.105Z,37.50
2018-03-22T02:24:42.102Z,34.60
2018-03-22T02:25:42.047Z,35.60
2018-03-22T02:26:42.027Z,35.20
2018-03-22T02:27:41.994Z,37.60
2018-03-22T02:28:41.964Z,35.40
2018-03-22T02:29:41.935Z,32.90
2018-03-22T02:30:41.904Z,37.30
2018-03-22T02:31:41.881Z,37.10
2018-03-22T02:32:41.848Z,36.10
2018-03-22T02:33:41.828Z,34.40
2018-03-22T02:34:41.791Z,33.80
2018-03-22T02:35:41.772Z,34.20
2018-03-22T02:36:41.734Z,36.50
2018-03-22T02:37:41.716Z,34.10
2018-03-22T02:38:41.754Z,35.10
2018-03-22T02:39:41.650Z,34.70
2018-03-22T02:40:41.649Z,33.80
2018-03-22T02:41:41.600Z,35.70
2018-03-22T02:42:41.566Z,32.70
2018-03-22T02:43:41.552Z,33.80
2018-03-22T02:44:41.518Z,36.30
2018-03-22T02:45:41.507Z,35.10
2018-03-22T02:46:41.461Z,33.00
2018-03-22T02:47:41.426Z,37.70
2018-03-22T02:48:41.398Z,34.10
2018-03-22T02:49:41.374Z,34.40
2018-03-22T02:50:41.346Z,36.10
2018-03-22T02:51:41.318Z,32.90
2018-03-22T02:52:41.296Z,30.90
2018-03-22T02:53:41.266Z,32.90
2018-03-22T02:54:41.232Z,34.70
2018-03-22T02:55:41.210Z,34.20
2018-03-22T02:56:41.177Z,33.30
2018-03-22T02:57:41.149Z,33.10
2018-03-22T02:58:41.129Z,33.50
2018-03-22T02:59:41.089Z,31.70
2018-03-22T03:00:41.072Z,36.00
2018-03-22T03:01:41.042Z,35.00
2018-03-22T03:02:41.007Z,33.70
2018-03-22T03:03:40.984Z,35.10
2018-03-22T03:04:41.041Z,33.10
2018-03-22T03:05:40.929Z,34.20
2018-03-22T03:06:40.894Z,34.70
2018-03-22T03:07:40.879Z,37.90
2018-03-22T03:08:40.841Z,37.80
2018-03-22T03:09:40.807Z,34.50
2018-03-22T03:10:40.790Z,34.00
2018-03-22T03:11:40.750Z,32.10
2018-03-22T03:12:40.725Z,33.70
2018-03-22T03:13:40.698Z,36.60
2018-03-22T03:14:40.669Z,34.70
2018-03-22T03:15:40.644Z,32.10
2018-03-22T03:16:40.613Z,33.60
2018-03-22T03:17:40.581Z,37.00
2018-03-22T03:18:40.561Z,34.50
2018-03-22T03:19:40.532Z,37.40
2018-03-22T03:20:40.507Z,35.60
2018-03-22T03:21:40.471Z,36.00
2018-03-22T03:22:40.450Z,36.20
2018-03-22T03:23:40.410Z,33.90
2018-03-22T03:24:40.423Z,37.30
2018-03-22T03:25:40.355Z,36.50
2018-03-22T03:26:40.332Z,34.60
2018-03-22T03:27:40.317Z,37.20
2018-03-22T03:28:40.271Z,34.80
2018-03-22T03:29:40.248Z,36.30
2018-03-22T03:30:40.306Z,36.50
2018-03-22T03:33:11.842Z,33.10
2018-03-22T03:34:11.793Z,37.00
2018-03-22T03:36:04.735Z,34.50
2018-03-22T03:37:04.638Z,35.60
2018-03-22T03:38:57.555Z,36.50
2018-03-22T03:39:57.486Z,38.50
2018-03-22T03:41:50.400Z,33.80
2018-03-22T03:42:50.347Z,37.20
2018-03-22T03:44:43.226Z,35.30
2018-03-22T03:45:43.189Z,34.40
2018-03-22T03:47:36.105Z,38.60
2018-03-22T03:48:36.036Z,38.40
2018-03-22T03:50:28.922Z,34.80
2018-03-22T03:51:28.886Z,35.20
2018-03-22T03:53:21.804Z,35.70
2018-03-22T03:54:21.743Z,34.80
2018-03-22T03:56:14.627Z,36.20
2018-03-22T03:57:14.587Z,37.00
2018-03-22T03:59:07.496Z,32.30
2018-03-22T04:00:07.438Z,34.20
2018-03-22T04:02:00.340Z,38.70
2018-03-22T04:03:00.293Z,36.30
2018-03-22T04:04:53.208Z,39.10
2018-03-22T04:05:53.142Z,37.90
2018-03-22T04:07:46.040Z,39.00
2018-03-22T04:08:45.989Z,44.30
2018-03-22T04:10:38.915Z,41.60
2018-03-22T04:11:38.843Z,43.60
2018-03-22T04:13:31.726Z,44.30
2018-03-22T04:14:31.692Z,39.50
2018-03-22T04:16:24.613Z,43.40
2018-03-22T04:17:24.534Z,39.30
2018-03-22T04:19:17.442Z,41.60
2018-03-22T04:20:17.401Z,36.90
2018-03-22T04:22:11.348Z,41.50
2018-03-22T04:23:11.280Z,41.40
2018-03-22T04:25:04.151Z,42.30
2018-03-22T04:26:04.118Z,44.50
2018-03-22T04:27:57.036Z,43.70
2018-03-22T04:28:56.966Z,40.20
2018-03-22T04:30:49.857Z,40.00
2018-03-22T04:31:49.820Z,43.70
2018-03-22T04:33:42.755Z,43.60
2018-03-22T04:34:42.666Z,44.30
2018-03-22T04:36:35.552Z,41.80
2018-03-22T04:37:35.517Z,39.20
2018-03-22T04:39:28.443Z,44.50
2018-03-22T04:40:28.374Z,43.40
2018-03-22T04:42:21.262Z,42.40
2018-03-22T04:43:21.219Z,42.50
2018-03-22T04:45:14.153Z,44.80
2018-03-22T04:46:14.079Z,42.60
2018-03-22T04:48:07.065Z,41.80
2018-03-22T04:49:07.027Z,44.40
2018-03-22T04:50:59.935Z,39.70
2018-03-22T04:51:59.871Z,40.60
2018-03-22T04:53:52.768Z,42.60
2018-03-22T04:54:52.721Z,38.80
2018-03-22T04:56:45.655Z,39.90
2018-03-22T04:57:45.573Z,45.80
2018-03-22T04:59:38.562Z,41.70
2018-03-22T05:00:38.527Z,40.10
2018-03-22T05:01:38.508Z,42.20
2018-03-22T05:02:38.469Z,43.70
2018-03-22T05:03:38.449Z,42.20
2018-03-22T05:04:38.408Z,43.00
2018-03-22T05:05:38.377Z,41.90
2018-03-22T05:06:38.356Z,43.70
2018-03-22T05:07:38.328Z,44.10
2018-03-22T05:08:38.301Z,45.20
2018-03-22T05:09:38.265Z,44.60
2018-03-22T05:10:38.259Z,46.50
2018-03-22T05:11:38.222Z,46.50
2018-03-22T05:12:38.181Z,46.30
2018-03-22T05:13:38.164Z,49.40
2018-03-22T05:14:38.129Z,51.40
2018-03-22T05:15:38.104Z,50.20
2018-03-22T05:16:38.075Z,48.40
2018-03-22T05:17:38.043Z,50.00
2018-03-22T05:18:38.027Z,49.30
2018-03-22T05:19:37.990Z,52.00
2018-03-22T05:20:37.969Z,53.60
2018-03-22T05:21:37.933Z,52.00
2018-03-22T05:22:37.905Z,50.30
2018-03-22T05:23:37.876Z,55.90
2018-03-22T05:24:37.852Z,56.20
2018-03-22T05:25:37.821Z,58.30
2018-03-22T05:26:37.794Z,57.00
2018-03-22T05:27:37.764Z,59.80
2018-03-22T05:28:37.737Z,59.70
2018-03-22T05:29:37.704Z,62.70
2018-03-22T05:30:37.678Z,61.30
2018-03-22T05:31:37.654Z,61.40
2018-03-22T05:32:37.619Z,63.90
2018-03-22T05:33:37.595Z,61.30
2018-03-22T05:34:37.571Z,60.30
2018-03-22T05:35:37.539Z,67.20
2018-03-22T05:36:37.508Z,63.00
2018-03-22T05:37:37.482Z,64.90
2018-03-22T05:38:37.456Z,61.50
2018-03-22T05:39:37.428Z,67.00
2018-03-22T05:40:37.406Z,62.40
2018-03-22T05:41:37.369Z,63.50
2018-03-22T05:42:37.346Z,61.70
2018-03-22T05:43:37.318Z,67.70
2018-03-22T05:44:37.282Z,62.00
2018-03-22T05:45:37.272Z,64.40
2018-03-22T05:46:37.226Z,67.30
2018-03-22T05:47:37.206Z,65.30
2018-03-22T05:48:37.173Z,62.70
2018-03-22T05:49:37.146Z,74.40
2018-03-22T05:50:37.115Z,61.40
2018-03-22T05:51:37.095Z,63.70
2018-03-22T05:52:37.064Z,63.60
2018-03-22T05:53:37.037Z,61.50
2018-03-22T05:54:37.008Z,64.20
2018-03-22T05:55:36.975Z,65.00
2018-03-22T05:56:36.943Z,59.50
2018-03-22T05:57:36.918Z,67.50
2018-03-22T05:58:36.890Z,68.20
2018-03-22T05:59:36.860Z,72.50
2018-03-22T06:00:36.842Z,67.80
2018-03-22T06:01:36.825Z,74.90
2018-03-22T06:02:36.785Z,73.10
2018-03-22T06:03:36.764Z,75.30
2018-03-22T06:04:36.728Z,74.10
2018-03-22T06:05:36.690Z,74.80
2018-03-22T06:06:36.677Z,77.80
2018-03-22T06:07:36.649Z,86.60
2018-03-22T06:08:36.599Z,90.10
2018-03-22T06:09:36.581Z,84.20
2018-03-22T06:10:36.548Z,87.10
2018-03-22T06:11:36.525Z,85.60
2018-03-22T06:12:36.498Z,91.80
2018-03-22T06:13:36.466Z,99.50
2018-03-22T06:14:36.435Z,89.00
2018-03-22T06:15:36.412Z,90.90
2018-03-22T06:16:36.379Z,92.20
2018-03-22T06:17:36.357Z,103.90
2018-03-22T06:18:36.330Z,91.90
2018-03-22T06:19:36.304Z,101.50
2018-03-22T06:20:36.267Z,106.10
2018-03-22T06:21:36.248Z,96.20
2018-03-22T06:22:36.205Z,109.80
2018-03-22T06:23:36.182Z,97.00
2018-03-22T06:24:36.156Z,103.40
2018-03-22T06:25:36.126Z,100.80
2018-03-22T06:26:36.106Z,117.10
2018-03-22T06:27:36.073Z,105.50
2018-03-22T06:28:36.038Z,110.20
2018-03-22T06:29:36.016Z,111.00
2018-03-22T06:30:35.992Z,107.40
2018-03-22T06:31:35.954Z,105.40
2018-03-22T06:32:35.928Z,115.60
2018-03-22T06:33:35.895Z,116.20
2018-03-22T06:34:35.867Z,112.60
2018-03-22T06:35:35.848Z,113.00
2018-03-22T06:36:35.820Z,128.20
2018-03-22T06:37:35.781Z,124.60
2018-03-22T06:38:35.761Z,121.60
2018-03-22T06:39:35.723Z,119.30
2018-03-22T06:40:35.697Z,129.10
2018-03-22T06:41:35.676Z,121.30
2018-03-22T06:42:35.635Z,127.00
2018-03-22T06:43:35.610Z,129.00
2018-03-22T06:44:35.597Z,140.80
2018-03-22T06:45:35.559Z,120.00
2018-03-22T06:46:35.530Z,131.80
2018-03-22T06:47:35.500Z,137.20
2018-03-22T06:48:35.473Z,125.20
2018-03-22T06:49:35.496Z,121.10
2018-03-22T06:50:35.410Z,122.00
2018-03-22T06:51:35.390Z,122.30
2018-03-22T06:52:35.365Z,121.70
2018-03-22T06:53:35.331Z,116.70
2018-03-22T06:54:35.297Z,123.00
2018-03-22T06:55:35.271Z,124.00
2018-03-22T06:56:35.243Z,134.50
2018-03-22T06:57:35.213Z,126.30
2018-03-22T06:58:35.186Z,110.80
2018-03-22T06:59:35.154Z,122.70
2018-03-22T07:00:35.128Z,122.50
2018-03-22T07:01:35.099Z,124.00
2018-03-22T07:02:35.079Z,120.20
2018-03-22T07:03:35.036Z,130.10
2018-03-22T07:04:35.013Z,115.30
2018-03-22T07:05:34.981Z,114.30
2018-03-22T07:06:34.956Z,119.70
2018-03-22T07:07:34.935Z,114.80
2018-03-22T07:08:34.898Z,115.20
2018-03-22T07:09:34.874Z,109.30
2018-03-22T07:10:34.846Z,115.90
2018-03-22T07:11:34.821Z,115.20
2018-03-22T07:12:34.783Z,119.80
2018-03-22T07:13:34.755Z,108.10
2018-03-22T07:14:34.748Z,117.90
2018-03-22T07:15:34.710Z,109.60
2018-03-22T07:16:34.671Z,98.20
2018-03-22T07:17:34.643Z,105.20
2018-03-22T07:18:34.608Z,101.00
2018-03-22T07:19:34.588Z,105.70
2018-03-22T07:20:34.558Z,97.50
2018-03-22T07:21:34.532Z,95.30
2018-03-22T07:22:34.506Z,79.30
2018-03-22T07:23:34.464Z,99.10
2018-03-22T07:24:34.444Z,98.50
2018-03-22T07:25:34.421Z,102.50
2018-03-22T07:26:34.388Z,101.90
2018-03-22T07:27:34.363Z,99.30
2018-03-22T07:28:34.329Z,100.70
2018-03-22T07:29:34.307Z,91.30
2018-03-22T07:30:34.275Z,96.80
2018-03-22T07:31:34.248Z,97.20
2018-03-22T07:32:34.236Z,100.70
2018-03-22T07:33:34.196Z,95.90
2018-03-22T07:34:34.166Z,100.30
2018-03-22T07:35:34.128Z,101.50
2018-03-22T07:36:34.112Z,98.40
2018-03-22T07:37:34.076Z,91.80
2018-03-22T07:38:34.050Z,90.40
2018-03-22T07:39:34.010Z,95.20
2018-03-22T07:40:33.987Z,95.20
2018-03-22T07:41:33.957Z,96.70
2018-03-22T07:42:33.933Z,93.20
2018-03-22T07:43:33.902Z,102.70
2018-03-22T07:44:33.863Z,101.50
2018-03-22T07:45:33.841Z,99.70
2018-03-22T07:46:33.815Z,98.20
2018-03-22T07:47:33.790Z,100.50
2018-03-22T07:48:33.762Z,94.60
2018-03-22T07:49:33.727Z,98.70
2018-03-22T07:50:33.702Z,106.00
2018-03-22T07:51:33.669Z,105.90
2018-03-22T07:52:33.645Z,92.20
2018-03-22T07:53:33.614Z,98.70
2018-03-22T07:54:33.592Z,95.00
2018-03-22T07:55:33.563Z,102.30
2018-03-22T07:56:33.530Z,100.50
2018-03-22T07:57:33.503Z,98.20
2018-03-22T07:58:33.469Z,98.30
2018-03-22T07:59:33.453Z,115.40
2018-03-22T08:00:33.423Z,102.50
2018-03-22T08:01:33.398Z,98.20
2018-03-22T08:02:33.366Z,99.70
2018-03-22T08:03:33.338Z,95.10
2018-03-22T08:04:33.308Z,92.70
2018-03-22T08:05:33.274Z,85.20
2018-03-22T08:06:33.246Z,91.10
2018-03-22T08:07:33.225Z,78.50
2018-03-22T08:08:33.189Z,84.00
2018-03-22T08:09:33.190Z,86.80
2018-03-22T08:10:33.141Z,84.30
2018-03-22T08:11:33.111Z,77.60
2018-03-22T08:12:33.077Z,83.90
2018-03-22T08:13:33.052Z,82.70
2018-03-22T08:14:33.029Z,77.60
2018-03-22T08:15:32.986Z,79.70
2018-03-22T08:16:33.224Z,60.10
2018-03-22T08:17:32.969Z,70.00
2018-03-22T08:18:32.909Z,79.30
2018-03-22T08:19:32.885Z,76.70
2018-03-22T08:20:32.905Z,79.40
2018-03-22T08:21:32.821Z,75.60
2018-03-22T08:22:32.792Z,71.40
2018-03-22T08:23:32.766Z,76.00
2018-03-22T08:24:32.748Z,78.10
2018-03-22T08:25:32.705Z,68.10
2018-03-22T08:26:32.684Z,73.00
2018-03-22T08:27:32.648Z,74.10
2018-03-22T08:28:32.626Z,75.30
2018-03-22T08:29:32.659Z,73.30
2018-03-22T08:30:32.608Z,75.40
2018-03-22T08:31:32.676Z,69.90
2018-03-22T08:32:32.542Z,74.90
2018-03-22T08:33:32.548Z,73.60
2018-03-22T08:34:32.506Z,68.70
2018-03-22T08:35:32.480Z,78.70
2018-03-22T08:36:32.403Z,65.90
2018-03-22T08:37:32.372Z,64.40
2018-03-22T08:38:32.479Z,70.90
2018-03-22T08:39:32.310Z,62.60
2018-03-22T08:40:32.287Z,63.90
2018-03-22T08:41:32.322Z,63.90
2018-03-22T08:42:32.367Z,64.40
2018-03-22T08:43:32.243Z,63.40
2018-03-22T08:44:32.243Z,67.60
2018-03-22T08:45:32.206Z,64.40
2018-03-22T08:46:32.242Z,63.50
2018-03-22T08:47:32.165Z,76.00
2018-03-22T08:48:32.054Z,62.90
2018-03-22T08:49:32.026Z,64.90
2018-03-22T08:50:32.042Z,68.40
2018-03-22T08:51:32.025Z,67.30
2018-03-22T08:52:32.025Z,72.90
2018-03-22T08:53:31.916Z,70.90
2018-03-22T08:54:31.885Z,75.60
2018-03-22T08:55:31.970Z,68.50
2018-03-22T08:56:31.822Z,75.30
2018-03-22T08:57:31.802Z,74.30
2018-03-22T08:58:31.774Z,69.50
2018-03-22T08:59:31.787Z,72.00
2018-03-22T09:00:31.743Z,76.90
2018-03-22T09:01:31.689Z,72.60
2018-03-22T09:02:31.793Z,79.10
2018-03-22T09:03:31.697Z,75.90
2018-03-22T09:04:31.608Z,75.60
2018-03-22T09:05:31.821Z,77.70
2018-03-22T09:06:31.677Z,77.40
2018-03-22T09:07:31.518Z,78.50
2018-03-22T09:08:31.491Z,79.70
2018-03-22T09:09:31.465Z,90.10
2018-03-22T09:10:31.430Z,81.90
2018-03-22T09:11:31.408Z,88.50
2018-03-22T09:12:31.439Z,88.50
2018-03-22T09:13:31.358Z,89.10
2018-03-22T09:14:31.382Z,88.40
2018-03-22T09:15:31.299Z,86.00
2018-03-22T09:16:31.353Z,84.70
2018-03-22T09:17:31.234Z,96.50
2018-03-22T09:18:31.266Z,88.30
2018-03-22T09:19:31.221Z,100.50
2018-03-22T09:20:31.149Z,100.70
2018-03-22T09:21:31.216Z,101.20
2018-03-22T09:22:31.136Z,105.10
2018-03-22T09:23:31.122Z,93.30
2018-03-22T09:24:31.038Z,99.80
2018-03-22T09:25:31.021Z,106.20
2018-03-22T09:26:31.074Z,103.50
2018-03-22T09:27:30.954Z,103.00
2018-03-22T09:28:30.929Z,98.80
2018-03-22T09:29:30.944Z,105.60
2018-03-22T09:30:30.883Z,102.70
2018-03-22T09:31:30.841Z,88.50
2018-03-22T09:32:30.811Z,98.00
2018-03-22T09:33:30.793Z,113.50
2018-03-22T09:34:30.840Z,114.60
2018-03-22T09:35:30.742Z,114.40
2018-03-22T09:36:30.770Z,110.80
2018-03-22T09:37:30.677Z,118.10
2018-03-22T09:38:30.743Z,100.60
2018-03-22T09:39:30.622Z,103.40
2018-03-22T09:40:30.647Z,104.30
2018-03-22T09:41:30.636Z,101.70
2018-03-22T09:42:30.535Z,99.00
2018-03-22T09:43:30.512Z,86.10
2018-03-22T09:44:30.513Z,92.30
2018-03-22T09:45:30.481Z,92.10
2018-03-22T09:46:30.473Z,88.40
2018-03-22T09:47:30.397Z,99.10
2018-03-22T09:48:30.420Z,85.20
2018-03-22T09:49:30.489Z,82.90
2018-03-22T09:50:30.303Z,81.20
2018-03-22T09:51:30.288Z,90.70
2018-03-22T09:52:30.329Z,90.20
2018-03-22T09:53:30.229Z,74.00
2018-03-22T09:54:30.281Z,80.70
2018-03-22T09:55:30.161Z,81.30
2018-03-22T09:56:30.144Z,87.80
2018-03-22T09:57:30.112Z,80.30
2018-03-22T09:58:30.087Z,78.40
2018-03-22T09:59:30.051Z,87.50
2018-03-22T10:00:30.030Z,85.20
2018-03-22T10:01:30.038Z,82.30
2018-03-22T10:02:29.972Z,82.40
2018-03-22T10:03:30.006Z,71.10
2018-03-22T10:04:29.966Z,68.30
2018-03-22T10:05:29.967Z,71.10
2018-03-22T10:06:29.870Z,72.80
2018-03-22T10:07:29.834Z,79.40
2018-03-22T10:08:29.858Z,80.60
2018-03-22T10:09:29.775Z,82.70
2018-03-22T10:10:29.749Z,76.90
2018-03-22T10:11:29.796Z,78.10
2018-03-22T10:12:29.696Z,75.30
2018-03-22T10:13:29.730Z,74.80
2018-03-22T10:14:29.664Z,69.10
2018-03-22T10:15:29.693Z,68.40
2018-03-22T10:16:29.577Z,74.20
2018-03-22T10:17:29.562Z,78.00
2018-03-22T10:18:29.555Z,71.20
2018-03-22T10:19:29.497Z,75.30
2018-03-22T10:20:29.531Z,70.20
2018-03-22T10:21:29.440Z,78.30
2018-03-22T10:22:29.486Z,77.10
2018-03-22T10:23:29.380Z,67.20
2018-03-22T10:24:29.357Z,77.00
2018-03-22T10:25:29.396Z,66.60
2018-03-22T10:26:29.302Z,66.60
2018-03-22T10:27:29.313Z,57.80
2018-03-22T10:28:29.309Z,65.50
2018-03-22T10:29:29.216Z,71.90
2018-03-22T10:30:29.189Z,66.20
2018-03-22T10:31:29.225Z,63.90
2018-03-22T10:32:29.133Z,67.20
2018-03-22T10:33:29.147Z,64.70
2018-03-22T10:34:29.121Z,65.70
2018-03-22T10:35:29.147Z,78.60
2018-03-22T10:36:29.055Z,72.60
2018-03-22T10:37:29.054Z,73.40
2018-03-22T10:38:28.969Z,71.40
2018-03-22T10:39:28.935Z,66.80
2018-03-22T10:40:28.910Z,78.80
2018-03-22T10:41:28.876Z,71.90
2018-03-22T10:42:28.918Z,73.50
2018-03-22T10:43:28.826Z,83.60
2018-03-22T10:44:28.798Z,82.70
2018-03-22T10:45:28.779Z,95.70
2018-03-22T10:46:28.744Z,93.60
2018-03-22T10:47:28.713Z,81.50
2018-03-22T10:48:28.710Z,92.10
2018-03-22T10:49:28.656Z,98.60
2018-03-22T10:50:28.628Z,101.80
2018-03-22T10:51:28.597Z,95.50
2018-03-22T10:52:28.573Z,98.60
2018-03-22T10:53:28.550Z,107.20
2018-03-22T10:54:28.619Z,97.00
2018-03-22T10:55:28.492Z,108.20
2018-03-22T10:56:28.507Z,110.20
2018-03-22T10:57:28.483Z,110.20
2018-03-22T10:58:28.462Z,113.00
2018-03-22T10:59:28.372Z,110.40
2018-03-22T11:00:28.415Z,119.60
2018-03-22T11:01:28.327Z,122.00
2018-03-22T11:02:28.326Z,123.10
2018-03-22T11:03:28.275Z,117.00
2018-03-22T11:04:28.239Z,105.00
2018-03-22T11:05:28.281Z,107.80
2018-03-22T11:06:28.186Z,123.10
2018-03-22T11:07:28.213Z,144.10
2018-03-22T11:08:28.205Z,110.50
2018-03-22T11:09:28.119Z,107.60
2018-03-22T11:10:28.078Z,112.00
2018-03-22T11:11:28.038Z,108.00
2018-03-22T11:12:28.015Z,111.60
2018-03-22T11:13:27.986Z,112.10
2018-03-22T11:14:28.011Z,120.80
2018-03-22T11:15:27.945Z,122.30
2018-03-22T11:16:27.950Z,138.00
2018-03-22T11:17:27.952Z,138.90
2018-03-22T11:18:27.888Z,144.90
2018-03-22T11:19:27.904Z,142.90
2018-03-22T11:20:27.794Z,165.90
2018-03-22T11:21:27.762Z,157.70
2018-03-22T11:22:27.787Z,173.80
2018-03-22T11:23:27.710Z,172.20
2018-03-22T11:24:27.687Z,179.50
2018-03-22T11:25:27.657Z,190.90
2018-03-22T11:26:27.627Z,188.10
2018-03-22T11:27:27.598Z,170.00
2018-03-22T11:28:27.567Z,192.50
2018-03-22T11:29:27.543Z,166.90
2018-03-22T11:30:27.514Z,183.20
2018-03-22T11:31:27.492Z,214.50
2018-03-22T11:32:27.535Z,207.70
2018-03-22T11:33:27.438Z,209.90
2018-03-22T11:34:27.443Z,234.20
2018-03-22T11:35:27.397Z,212.20
2018-03-22T11:36:27.348Z,226.90
2018-03-22T11:37:27.319Z,223.60
2018-03-22T11:38:27.297Z,189.20
2018-03-22T11:39:27.362Z,187.80
2018-03-22T11:40:27.245Z,233.80
2018-03-22T11:41:27.209Z,199.70
2018-03-22T11:42:27.185Z,192.20
2018-03-22T11:43:27.156Z,227.80
2018-03-22T11:44:27.129Z,209.90
2018-03-22T11:45:27.102Z,197.00
2018-03-22T11:46:27.079Z,203.20
2018-03-22T11:47:27.047Z,220.10
2018-03-22T11:48:27.060Z,235.50
2018-03-22T11:49:26.994Z,228.30
2018-03-22T11:50:26.966Z,224.60
2018-03-22T11:51:26.936Z,205.50
2018-03-22T11:52:26.920Z,218.60
2018-03-22T11:53:26.876Z,212.30
2018-03-22T11:54:26.936Z,228.20
2018-03-22T11:55:26.827Z,250.00
2018-03-22T11:56:26.842Z,293.40
2018-03-22T11:57:26.780Z,291.00
2018-03-22T11:58:26.742Z,268.30
2018-03-22T11:59:26.712Z,306.60
2018-03-22T12:00:26.694Z,257.10
2018-03-22T12:01:26.742Z,303.30
2018-03-22T12:02:26.674Z,333.50
2018-03-22T12:03:26.617Z,328.70
2018-03-22T12:04:26.624Z,339.40
2018-03-22T12:05:26.600Z,349.70
2018-03-22T12:06:26.560Z,323.60
2018-03-22T12:07:26.490Z,438.70
2018-03-22T12:08:26.532Z,453.30
2018-03-22T12:09:26.513Z,452.50
2018-03-22T12:10:26.407Z,365.80
2018-03-22T12:11:26.441Z,464.20
2018-03-22T12:12:26.397Z,376.90
2018-03-22T12:13:26.331Z,473.30
2018-03-22T12:14:26.316Z,407.40
2018-03-22T12:15:26.356Z,447.50
2018-03-22T12:16:26.268Z,352.50
2018-03-22T12:17:26.215Z,375.20
2018-03-22T12:18:26.258Z,441.10
2018-03-22T12:19:26.250Z,418.00
2018-03-22T12:20:26.215Z,403.80
2018-03-22T12:21:26.114Z,382.50
2018-03-22T12:22:26.079Z,449.90
2018-03-22T12:23:26.058Z,468.30
2018-03-22T12:24:26.075Z,412.10
2018-03-22T12:25:26.051Z,405.10
2018-03-22T12:26:25.973Z,466.10
2018-03-22T12:27:25.938Z,409.20
2018-03-22T12:28:25.916Z,462.60
2018-03-22T12:29:25.887Z,512.80
2018-03-22T12:30:25.864Z,502.30
2018-03-22T12:31:25.838Z,426.00
2018-03-22T12:32:25.846Z,414.30
2018-03-22T12:33:25.821Z,457.90
2018-03-22T12:34:25.816Z,490.20
2018-03-22T12:35:25.730Z,454.50
2018-03-22T12:36:25.768Z,442.60
2018-03-22T12:37:25.675Z,378.90
2018-03-22T12:38:25.641Z,541.40
2018-03-22T12:39:25.621Z,486.90
2018-03-22T12:40:25.583Z,441.90
2018-03-22T12:41:25.658Z,417.80
2018-03-22T12:42:25.636Z,393.50
2018-03-22T12:43:25.600Z,406.90
2018-03-22T12:44:25.514Z,449.00
2018-03-22T12:45:25.514Z,348.30
2018-03-22T12:46:25.502Z,387.90
2018-03-22T12:47:25.445Z,333.70
2018-03-22T12:48:25.444Z,363.10
2018-03-22T12:49:25.388Z,290.70
2018-03-22T12:50:25.318Z,262.50
2018-03-22T12:51:25.293Z,373.90
2018-03-22T12:52:25.261Z,322.20
2018-03-22T12:53:25.303Z,307.00
2018-03-22T12:54:25.211Z,293.00
2018-03-22T12:55:25.241Z,343.50
2018-03-22T12:56:25.190Z,262.60
2018-03-22T12:57:25.131Z,217.50
2018-03-22T12:58:25.160Z,226.20
2018-03-22T12:59:25.066Z,278.00
2018-03-22T13:00:25.039Z,281.30
2018-03-22T13:01:25.026Z,265.90
2018-03-22T13:02:24.991Z,279.10
2018-03-22T13:03:24.962Z,318.60
2018-03-22T13:04:24.990Z,272.80
2018-03-22T13:05:24.905Z,328.20
2018-03-22T13:06:24.910Z,205.20
2018-03-22T13:07:24.900Z,198.40
2018-03-22T13:08:24.823Z,184.10
2018-03-22T13:09:24.805Z,175.50
2018-03-22T13:10:24.797Z,179.60
2018-03-22T13:11:24.829Z,193.70
2018-03-22T13:12:24.781Z,197.20
2018-03-22T13:13:24.743Z,164.10